Dai2kousei — JD2542 — position and weather

sailwx.info

Track history (hours):
 
Tides and Currents Weather Stations Pressure Air Temp Water Temp Dewpoint Dewpoint Depression Visibility Wind Speed Wind Dir Waves Ship Positions

Dai2kousei

Last reported at 2016-May-24 09:33 UTC. Time now 2016-May-30 16:28 UTC.
Position N 34°05' E 134°47'.

Length 77 m; draft 4.7 m.

MMSI: 431000467.

Date/timePositionNaut miles runAvg speedWind from/ knotsBaromVisibWave heightAir tempDewpointWater temp
2016-May-24 09:33N 34°05' E 134°47'216 9.8
2016-May-23 11:30N 34°42' E 139°05'1011.0
2016-May-23 10:33N 34°48' E 139°15'1110.6
2016-May-23 09:33N 34°55' E 139°25'1010.4
2016-May-23 08:33N 35°02' E 139°35'1111.2
2016-May-23 07:33N 35°10' E 139°44'10 9.6
2016-May-23 06:33N 35°20' E 139°43'10 9.6
2016-May-23 05:33N 35°29' E 139°44'0 0.0
2016-May-23 04:33N 35°29' E 139°44'0 0.0
2016-May-23 03:33N 35°29' E 139°44'0 0.0
2016-May-23 02:33N 35°29' E 139°44'0 0.0
2016-May-23 01:33N 35°29' E 139°44'0 0.0
2016-May-23 00:33N 35°29' E 139°44'0 0.0
2016-May-22 23:33N 35°29' E 139°44'0 0.0
2016-May-22 22:33N 35°29' E 139°44'0 0.0
2016-May-22 21:33N 35°29' E 139°44'0 0.0
2016-May-22 20:33N 35°29' E 139°44'1 0.5
2016-May-22 19:33N 35°29' E 139°45'1 0.8
2016-May-22 18:33N 35°29' E 139°46'0 0.1
2016-May-22 17:33N 35°29' E 139°46'0 0.1
2016-May-22 16:33N 35°29' E 139°45'0 0.0
2016-May-22 15:33N 35°29' E 139°45'0 0.0
2016-May-22 14:33N 35°29' E 139°45'0 0.0
2016-May-22 13:33N 35°29' E 139°45'0 0.0
2016-May-22 12:33N 35°29' E 139°45'0 0.0
2016-May-22 11:33N 35°29' E 139°45'0 0.0
2016-May-22 10:33N 35°29' E 139°45'0 0.0
2016-May-22 09:33N 35°29' E 139°45'0 0.0
2016-May-22 08:33N 35°29' E 139°45'8 8.0
2016-May-22 07:33N 35°21' E 139°45'1110.9
2016-May-22 06:33N 35°10' E 139°46'  
2016-May-16 12:18N 34°06' E 134°46'251 9.4
2016-May-15 09:25N 35°07' E 139°42'1011.2
2016-May-15 08:33N 35°16' E 139°45'1110.8
2016-May-15 07:33N 35°27' E 139°44'2 2.1
2016-May-15 06:33N 35°29' E 139°44'0 0.0
2016-May-15 05:33N 35°29' E 139°44'0 0.0
2016-May-15 04:34N 35°29' E 139°44'0 0.0
2016-May-15 03:33N 35°29' E 139°44'0 0.0
2016-May-15 02:33N 35°29' E 139°44'0 0.0
2016-May-15 01:33N 35°29' E 139°44'0 0.0
2016-May-15 00:34N 35°29' E 139°44'0 0.0
2016-May-14 23:34N 35°29' E 139°44'0 0.0
2016-May-14 22:34N 35°29' E 139°44'0 0.0
2016-May-14 21:34N 35°29' E 139°44'1 0.7
2016-May-14 20:34N 35°29' E 139°45'1 0.9
2016-May-14 19:34N 35°29' E 139°46'0 0.0
2016-May-14 18:34N 35°29' E 139°46'0 0.0
2016-May-14 17:34N 35°29' E 139°46'0 0.0
2016-May-14 16:34N 35°29' E 139°46'0 0.1
2016-May-14 15:34N 35°29' E 139°46'0 0.1
2016-May-14 14:33N 35°29' E 139°46'0 0.0
2016-May-14 13:33N 35°29' E 139°46'0 0.0
2016-May-14 12:33N 35°29' E 139°46'0 0.0
2016-May-14 11:34N 35°29' E 139°46'0 0.0
2016-May-14 10:34N 35°29' E 139°46'0 0.0
2016-May-14 09:33N 35°29' E 139°46'  
Track history (hours):
 
Tides and Currents Weather Stations Pressure Air Temp Water Temp Dewpoint Dewpoint Depression Visibility Wind Speed Wind Dir Waves Ship Positions

Dai2kousei

Last reported at 2016-May-24 09:33 UTC. Time now 2016-May-30 16:28 UTC.
Position N 34°05' E 134°47'.

Length 77 m; draft 4.7 m.

MMSI: 431000467.

Date/timePositionNaut miles runAvg speedWind from/ knotsBaromVisibWave heightAir tempDewpointWater temp
2016-May-24 09:33N 34°05' E 134°47'216 9.8
2016-May-23 11:30N 34°42' E 139°05'1011.0
2016-May-23 10:33N 34°48' E 139°15'1110.6
2016-May-23 09:33N 34°55' E 139°25'1010.4
2016-May-23 08:33N 35°02' E 139°35'1111.2
2016-May-23 07:33N 35°10' E 139°44'10 9.6
2016-May-23 06:33N 35°20' E 139°43'10 9.6
2016-May-23 05:33N 35°29' E 139°44'0 0.0
2016-May-23 04:33N 35°29' E 139°44'0 0.0
2016-May-23 03:33N 35°29' E 139°44'0 0.0
2016-May-23 02:33N 35°29' E 139°44'0 0.0
2016-May-23 01:33N 35°29' E 139°44'0 0.0
2016-May-23 00:33N 35°29' E 139°44'0 0.0
2016-May-22 23:33N 35°29' E 139°44'0 0.0
2016-May-22 22:33N 35°29' E 139°44'0 0.0
2016-May-22 21:33N 35°29' E 139°44'0 0.0
2016-May-22 20:33N 35°29' E 139°44'1 0.5
2016-May-22 19:33N 35°29' E 139°45'1 0.8
2016-May-22 18:33N 35°29' E 139°46'0 0.1
2016-May-22 17:33N 35°29' E 139°46'0 0.1
2016-May-22 16:33N 35°29' E 139°45'0 0.0
2016-May-22 15:33N 35°29' E 139°45'0 0.0
2016-May-22 14:33N 35°29' E 139°45'0 0.0
2016-May-22 13:33N 35°29' E 139°45'0 0.0
2016-May-22 12:33N 35°29' E 139°45'0 0.0
2016-May-22 11:33N 35°29' E 139°45'0 0.0
2016-May-22 10:33N 35°29' E 139°45'0 0.0
2016-May-22 09:33N 35°29' E 139°45'0 0.0
2016-May-22 08:33N 35°29' E 139°45'8 8.0
2016-May-22 07:33N 35°21' E 139°45'1110.9
2016-May-22 06:33N 35°10' E 139°46'  
2016-May-16 12:18N 34°06' E 134°46'251 9.4
2016-May-15 09:25N 35°07' E 139°42'1011.2
2016-May-15 08:33N 35°16' E 139°45'1110.8
2016-May-15 07:33N 35°27' E 139°44'2 2.1
2016-May-15 06:33N 35°29' E 139°44'0 0.0
2016-May-15 05:33N 35°29' E 139°44'0 0.0
2016-May-15 04:34N 35°29' E 139°44'0 0.0
2016-May-15 03:33N 35°29' E 139°44'0 0.0
2016-May-15 02:33N 35°29' E 139°44'0 0.0
2016-May-15 01:33N 35°29' E 139°44'0 0.0
2016-May-15 00:34N 35°29' E 139°44'0 0.0
2016-May-14 23:34N 35°29' E 139°44'0 0.0
2016-May-14 22:34N 35°29' E 139°44'0 0.0
2016-May-14 21:34N 35°29' E 139°44'1 0.7
2016-May-14 20:34N 35°29' E 139°45'1 0.9
2016-May-14 19:34N 35°29' E 139°46'0 0.0
2016-May-14 18:34N 35°29' E 139°46'0 0.0
2016-May-14 17:34N 35°29' E 139°46'0 0.0
2016-May-14 16:34N 35°29' E 139°46'0 0.1
2016-May-14 15:34N 35°29' E 139°46'0 0.1
2016-May-14 14:33N 35°29' E 139°46'0 0.0
2016-May-14 13:33N 35°29' E 139°46'0 0.0
2016-May-14 12:33N 35°29' E 139°46'0 0.0
2016-May-14 11:34N 35°29' E 139°46'0 0.0
2016-May-14 10:34N 35°29' E 139°46'0 0.0
2016-May-14 09:33N 35°29' E 139°46'  

Dump ship's entire track history